WXM80 ListenWXM80 Stop

You find our weather info also at:

UK Metoffice

WeatherCloud

Weather Underground

Northeastern Weather Network

AWEKAS

Citizen Weather Observer Program (CWOP)

HAMweather, WeatherForYou, PWS Weather


Weather Underground History page Text

Daily Summary for June 29, 2017 Units:  Both    English   Metric
« Previous Day
Next Day »
Daily Weekly Monthly Yearly Custom
  High: Low: Average:
Temperature: 82.6 °F /  28.1 °C 64.5 °F /  18.1 °C 72.8 °F /  22.7 °C
Dew Point: 67.4 °F /  19.7 °C 56.0 °F /  13.3 °C 62.2 °F /  16.8 °C
Humidity: 79 % 55 % 70 %
Wind Speed: 7.5 mph /  12.1 km/h - 1.9 mph /  3.1 km/h
Wind Gust: 14.0 mph /  22.5 km/h - -
Wind:- - SSW
Pressure: 30.13 in /  1020.2 hPa 29.98 in /  1015.1 hPa -
Precipitation: 0.00 in /  0 mm    
Historical Graphs
 
 
Tabular Data for June 29, 2017
Time Temperature Dew Point Pressure Wind Wind Speed Wind Gust Humidity Rainfall Rate (Hourly)
00:00 67.4 °F /  19.7 °C 57.7 °F /  14.3 °C 30.08 in /  1018.5 hPa Calm   2.3 mph /  3.7 km/h 71 % 0.00 in /  0 mm
00:05 67.4 °F /  19.7 °C 57.7 °F /  14.3 °C 30.08 in /  1018.5 hPa WSW 0.6 mph /  1 km/h 2.3 mph /  3.7 km/h 71 % 0.00 in /  0 mm
00:10 67.4 °F /  19.7 °C 57.7 °F /  14.3 °C 30.08 in /  1018.5 hPa SW 0.9 mph /  1.4 km/h 3.5 mph /  5.6 km/h 71 % 0.00 in /  0 mm
00:15 67.4 °F /  19.7 °C 57.7 °F /  14.3 °C 30.08 in /  1018.5 hPa SW 0.8 mph /  1.3 km/h 3.5 mph /  5.6 km/h 71 % 0.00 in /  0 mm
00:20 67.3 °F /  19.6 °C 58.0 °F /  14.4 °C 30.08 in /  1018.5 hPa SW 1.0 mph /  1.6 km/h 2.3 mph /  3.7 km/h 72 % 0.00 in /  0 mm
00:25 67.3 °F /  19.6 °C 58.0 °F /  14.4 °C 30.08 in /  1018.5 hPa SW 1.2 mph /  1.9 km/h 3.5 mph /  5.6 km/h 72 % 0.00 in /  0 mm
00:30 67.3 °F /  19.6 °C 57.6 °F /  14.2 °C 30.07 in /  1018.2 hPa South 0.3 mph /  0.5 km/h 2.3 mph /  3.7 km/h 71 % 0.00 in /  0 mm
00:35 67.3 °F /  19.6 °C 57.6 °F /  14.2 °C 30.07 in /  1018.2 hPa SW 0.6 mph /  1 km/h 3.5 mph /  5.6 km/h 71 % 0.00 in /  0 mm
00:40 67.2 °F /  19.6 °C 57.5 °F /  14.2 °C 30.08 in /  1018.5 hPa WSW 1.2 mph /  1.9 km/h 2.3 mph /  3.7 km/h 71 % 0.00 in /  0 mm
00:45 67.2 °F /  19.6 °C 57.5 °F /  14.2 °C 30.08 in /  1018.5 hPa WSW 0.8 mph /  1.3 km/h 3.0 mph /  4.8 km/h 71 % 0.00 in /  0 mm
00:50 67.2 °F /  19.6 °C 57.5 °F /  14.2 °C 30.08 in /  1018.5 hPa WSW 0.5 mph /  0.8 km/h 2.3 mph /  3.7 km/h 71 % 0.00 in /  0 mm
00:55 67.2 °F /  19.6 °C 57.5 °F /  14.2 °C 30.08 in /  1018.5 hPa WSW 1.4 mph /  2.3 km/h 3.5 mph /  5.6 km/h 71 % 0.00 in /  0 mm
01:00 67.2 °F /  19.6 °C 57.5 °F /  14.2 °C 30.08 in /  1018.5 hPa West 2.0 mph /  3.2 km/h 6.9 mph /  11.1 km/h 71 % 0.00 in /  0 mm
01:05 67.2 °F /  19.6 °C 57.5 °F /  14.2 °C 30.08 in /  1018.5 hPa WSW 0.8 mph /  1.3 km/h 3.0 mph /  4.8 km/h 71 % 0.00 in /  0 mm
01:10 67.2 °F /  19.6 °C 57.5 °F /  14.2 °C 30.08 in /  1018.5 hPa WSW 1.3 mph /  2.1 km/h 2.3 mph /  3.7 km/h 71 % 0.00 in /  0 mm
01:15 67.2 °F /  19.6 °C 57.5 °F /  14.2 °C 30.08 in /  1018.5 hPa WSW 0.4 mph /  0.6 km/h 1.2 mph /  1.9 km/h 71 % 0.00 in /  0 mm
01:20 67.2 °F /  19.6 °C 57.5 °F /  14.2 °C 30.08 in /  1018.5 hPa WSW 1.5 mph /  2.4 km/h 4.6 mph /  7.4 km/h 71 % 0.00 in /  0 mm
01:25 67.1 °F /  19.5 °C 57.4 °F /  14.1 °C 30.08 in /  1018.5 hPa SSE 1.1 mph /  1.8 km/h 3.0 mph /  4.8 km/h 71 % 0.00 in /  0 mm
01:30 67.1 °F /  19.5 °C 57.4 °F /  14.1 °C 30.08 in /  1018.5 hPa South 0.3 mph /  0.5 km/h 2.0 mph /  3.2 km/h 71 % 0.00 in /  0 mm
01:35 67.1 °F /  19.5 °C 57.4 °F /  14.1 °C 30.08 in /  1018.5 hPa SW 0.5 mph /  0.8 km/h 2.3 mph /  3.7 km/h 71 % 0.00 in /  0 mm
01:40 67.0 °F /  19.4 °C 57.3 °F /  14.1 °C 30.08 in /  1018.5 hPa SW 0.1 mph /  0.2 km/h 1.2 mph /  1.9 km/h 71 % 0.00 in /  0 mm
01:45 67.0 °F /  19.4 °C 57.3 °F /  14.1 °C 30.08 in /  1018.5 hPa Calm     71 % 0.00 in /  0 mm
01:50 66.9 °F /  19.4 °C 57.2 °F /  14 °C 30.09 in /  1018.8 hPa SW 0.6 mph /  1 km/h 3.5 mph /  5.6 km/h 71 % 0.00 in /  0 mm
01:56 66.9 °F /  19.4 °C 57.2 °F /  14 °C 30.09 in /  1018.8 hPa SW 0.3 mph /  0.5 km/h 2.3 mph /  3.7 km/h 71 % 0.00 in /  0 mm
02:01 66.8 °F /  19.3 °C 57.1 °F /  13.9 °C 30.09 in /  1018.8 hPa WSW 0.6 mph /  1 km/h 1.2 mph /  1.9 km/h 71 % 0.00 in /  0 mm
02:06 66.8 °F /  19.3 °C 57.1 °F /  13.9 °C 30.09 in /  1018.8 hPa WSW 2.0 mph /  3.2 km/h 8.0 mph /  12.9 km/h 71 % 0.00 in /  0 mm
02:11 66.7 °F /  19.3 °C 57.0 °F /  13.9 °C 30.09 in /  1018.8 hPa SW 1.0 mph /  1.6 km/h 5.0 mph /  8 km/h 71 % 0.00 in /  0 mm
02:16 66.7 °F /  19.3 °C 56.6 °F /  13.7 °C 30.09 in /  1018.8 hPa SW 1.0 mph /  1.6 km/h 4.0 mph /  6.4 km/h 70 % 0.00 in /  0 mm
02:21 66.6 °F /  19.2 °C 56.5 °F /  13.6 °C 30.09 in /  1018.8 hPa SW 1.0 mph /  1.6 km/h 3.0 mph /  4.8 km/h 70 % 0.00 in /  0 mm
02:26 66.6 °F /  19.2 °C 56.5 °F /  13.6 °C 30.09 in /  1018.8 hPa WSW 1.0 mph /  1.6 km/h 6.0 mph /  9.7 km/h 70 % 0.00 in /  0 mm
02:31 66.5 °F /  19.2 °C 56.4 °F /  13.6 °C 30.09 in /  1018.8 hPa Calm   4.0 mph /  6.4 km/h 70 % 0.00 in /  0 mm
02:36 66.5 °F /  19.2 °C 56.4 °F /  13.6 °C 30.09 in /  1018.8 hPa SW 0.1 mph /  0.2 km/h 3.5 mph /  5.6 km/h 70 % 0.00 in /  0 mm
02:41 66.5 °F /  19.2 °C 56.4 °F /  13.6 °C 30.09 in /  1018.8 hPa SW 0.3 mph /  0.5 km/h 2.0 mph /  3.2 km/h 70 % 0.00 in /  0 mm
02:46 66.4 °F /  19.1 °C 56.3 °F /  13.5 °C 30.09 in /  1018.8 hPa Calm   3.0 mph /  4.8 km/h 70 % 0.00 in /  0 mm
02:51 66.4 °F /  19.1 °C 56.3 °F /  13.5 °C 30.09 in /  1018.8 hPa Calm   1.0 mph /  1.6 km/h 70 % 0.00 in /  0 mm
02:56 66.4 °F /  19.1 °C 56.7 °F /  13.7 °C 30.09 in /  1018.8 hPa Calm   1.0 mph /  1.6 km/h 71 % 0.00 in /  0 mm
03:01 66.3 °F /  19.1 °C 56.2 °F /  13.4 °C 30.09 in /  1018.8 hPa SW 0.5 mph /  0.8 km/h 3.5 mph /  5.6 km/h 70 % 0.00 in /  0 mm
03:06 66.3 °F /  19.1 °C 56.2 °F /  13.4 °C 30.09 in /  1018.8 hPa SW 1.0 mph /  1.6 km/h 4.0 mph /  6.4 km/h 70 % 0.00 in /  0 mm
03:11 66.2 °F /  19 °C 56.1 °F /  13.4 °C 30.09 in /  1018.8 hPa Calm   4.0 mph /  6.4 km/h 70 % 0.00 in /  0 mm
03:16 66.2 °F /  19 °C 56.5 °F /  13.6 °C 30.09 in /  1018.8 hPa SW 1.0 mph /  1.6 km/h 3.5 mph /  5.6 km/h 71 % 0.00 in /  0 mm
03:21 66.2 °F /  19 °C 56.1 °F /  13.4 °C 30.09 in /  1018.8 hPa SW 1.2 mph /  1.9 km/h 2.3 mph /  3.7 km/h 70 % 0.00 in /  0 mm
03:26 66.1 °F /  18.9 °C 56.0 °F /  13.3 °C 30.09 in /  1018.8 hPa WSW 1.0 mph /  1.6 km/h 4.0 mph /  6.4 km/h 70 % 0.00 in /  0 mm
03:31 66.1 °F /  18.9 °C 56.0 °F /  13.3 °C 30.10 in /  1019.2 hPa Calm   3.0 mph /  4.8 km/h 70 % 0.00 in /  0 mm
03:36 66.1 °F /  18.9 °C 56.0 °F /  13.3 °C 30.10 in /  1019.2 hPa SW 1.0 mph /  1.6 km/h 5.0 mph /  8 km/h 70 % 0.00 in /  0 mm
03:41 66.1 °F /  18.9 °C 56.0 °F /  13.3 °C 30.10 in /  1019.2 hPa SW 1.0 mph /  1.6 km/h 4.0 mph /  6.4 km/h 70 % 0.00 in /  0 mm
03:46 66.0 °F /  18.9 °C 56.3 °F /  13.5 °C 30.10 in /  1019.2 hPa Calm   1.2 mph /  1.9 km/h 71 % 0.00 in /  0 mm
03:51 65.9 °F /  18.8 °C 56.2 °F /  13.4 °C 30.10 in /  1019.2 hPa SW 0.1 mph /  0.2 km/h 3.5 mph /  5.6 km/h 71 % 0.00 in /  0 mm
03:56 65.8 °F /  18.8 °C 56.5 °F /  13.6 °C 30.10 in /  1019.2 hPa SW 0.7 mph /  1.1 km/h 2.3 mph /  3.7 km/h 72 % 0.00 in /  0 mm
04:01 65.8 °F /  18.8 °C 56.5 °F /  13.6 °C 30.10 in /  1019.2 hPa SW 0.3 mph /  0.5 km/h 2.3 mph /  3.7 km/h 72 % 0.00 in /  0 mm
04:06 65.6 °F /  18.7 °C 56.3 °F /  13.5 °C 30.10 in /  1019.2 hPa SW 0.2 mph /  0.3 km/h 2.3 mph /  3.7 km/h 72 % 0.00 in /  0 mm
04:11 65.6 °F /  18.7 °C 56.3 °F /  13.5 °C 30.11 in /  1019.5 hPa WSW 0.4 mph /  0.6 km/h 2.3 mph /  3.7 km/h 72 % 0.00 in /  0 mm
04:16 65.4 °F /  18.6 °C 56.5 °F /  13.6 °C 30.11 in /  1019.5 hPa WSW 0.1 mph /  0.2 km/h 3.5 mph /  5.6 km/h 73 % 0.00 in /  0 mm
04:21 65.4 °F /  18.6 °C 56.5 °F /  13.6 °C 30.11 in /  1019.5 hPa SW 1.8 mph /  2.9 km/h 3.5 mph /  5.6 km/h 73 % 0.00 in /  0 mm
04:26 65.2 °F /  18.4 °C 56.3 °F /  13.5 °C 30.11 in /  1019.5 hPa SW 0.3 mph /  0.5 km/h 1.2 mph /  1.9 km/h 73 % 0.00 in /  0 mm
04:31 65.2 °F /  18.4 °C 56.3 °F /  13.5 °C 30.11 in /  1019.5 hPa SW 0.1 mph /  0.2 km/h 2.3 mph /  3.7 km/h 73 % 0.00 in /  0 mm
04:36 65.1 °F /  18.4 °C 56.6 °F /  13.7 °C 30.11 in /  1019.5 hPa Calm     74 % 0.00 in /  0 mm
04:41 65.1 °F /  18.4 °C 56.6 °F /  13.7 °C 30.11 in /  1019.5 hPa Calm     74 % 0.00 in /  0 mm
04:46 65.0 °F /  18.3 °C 56.5 °F /  13.6 °C 30.11 in /  1019.5 hPa Calm     74 % 0.00 in /  0 mm
04:51 64.9 °F /  18.3 °C 56.8 °F /  13.8 °C 30.11 in /  1019.5 hPa Calm   2.3 mph /  3.7 km/h 75 % 0.00 in /  0 mm
04:56 64.8 °F /  18.2 °C 56.7 °F /  13.7 °C 30.11 in /  1019.5 hPa WSW 0.6 mph /  1 km/h 3.5 mph /  5.6 km/h 75 % 0.00 in /  0 mm
05:01 64.7 °F /  18.2 °C 56.6 °F /  13.7 °C 30.11 in /  1019.5 hPa Calm     75 % 0.00 in /  0 mm
05:06 64.6 °F /  18.1 °C 56.9 °F /  13.8 °C 30.11 in /  1019.5 hPa Calm     76 % 0.00 in /  0 mm
05:11 64.5 °F /  18.1 °C 56.4 °F /  13.6 °C 30.11 in /  1019.5 hPa Calm     75 % 0.00 in /  0 mm
05:16 64.5 °F /  18.1 °C 56.8 °F /  13.8 °C 30.11 in /  1019.5 hPa Calm   1.2 mph /  1.9 km/h 76 % 0.00 in /  0 mm
05:21 64.5 °F /  18.1 °C 56.8 °F /  13.8 °C 30.11 in /  1019.5 hPa SW 0.4 mph /  0.6 km/h 1.0 mph /  1.6 km/h 76 % 0.00 in /  0 mm
05:26 64.5 °F /  18.1 °C 56.8 °F /  13.8 °C 30.11 in /  1019.5 hPa Calm   2.3 mph /  3.7 km/h 76 % 0.00 in /  0 mm
05:31 64.5 °F /  18.1 °C 56.8 °F /  13.8 °C 30.11 in /  1019.5 hPa SSW 0.2 mph /  0.3 km/h 1.2 mph /  1.9 km/h 76 % 0.00 in /  0 mm
05:36 64.6 °F /  18.1 °C 57.2 °F /  14 °C 30.11 in /  1019.5 hPa SSW 0.1 mph /  0.2 km/h 1.2 mph /  1.9 km/h 77 % 0.00 in /  0 mm
05:41 64.6 °F /  18.1 °C 57.2 °F /  14 °C 30.11 in /  1019.5 hPa Calm   3.5 mph /  5.6 km/h 77 % 0.00 in /  0 mm
05:46 64.6 °F /  18.1 °C 57.2 °F /  14 °C 30.11 in /  1019.5 hPa SW 0.1 mph /  0.2 km/h   77 % 0.00 in /  0 mm
05:52 64.7 °F /  18.2 °C 57.3 °F /  14.1 °C 30.11 in /  1019.5 hPa Calm     77 % 0.00 in /  0 mm
05:57 64.7 °F /  18.2 °C 57.3 °F /  14.1 °C 30.11 in /  1019.5 hPa Calm     77 % 0.00 in /  0 mm
06:02 64.8 °F /  18.2 °C 57.4 °F /  14.1 °C 30.11 in /  1019.5 hPa Calm     77 % 0.00 in /  0 mm
06:07 64.8 °F /  18.2 °C 57.4 °F /  14.1 °C 30.11 in /  1019.5 hPa Calm     77 % 0.00 in /  0 mm
06:08 64.8 °F /  18.2 °C 57.4 °F /  14.1 °C 30.11 in /  1019.5 hPa Calm     77 % 0.00 in /  0 mm
06:13 64.9 °F /  18.3 °C 57.9 °F /  14.4 °C 30.11 in /  1019.5 hPa Calm     78 % 0.00 in /  0 mm
06:19 65.0 °F /  18.3 °C 58.0 °F /  14.4 °C 30.11 in /  1019.5 hPa Calm     78 % 0.00 in /  0 mm
06:24 65.0 °F /  18.3 °C 58.0 °F /  14.4 °C 30.11 in /  1019.5 hPa Calm     78 % 0.00 in /  0 mm
06:29 65.1 °F /  18.4 °C 58.1 °F /  14.5 °C 30.11 in /  1019.5 hPa SW 0.3 mph /  0.5 km/h 2.3 mph /  3.7 km/h 78 % 0.00 in /  0 mm
06:34 65.2 °F /  18.4 °C 58.2 °F /  14.6 °C 30.12 in /  1019.9 hPa SW 0.1 mph /  0.2 km/h 1.2 mph /  1.9 km/h 78 % 0.00 in /  0 mm
06:39 65.3 °F /  18.5 °C 58.3 °F /  14.6 °C 30.12 in /  1019.9 hPa Calm     78 % 0.00 in /  0 mm
06:44 65.4 °F /  18.6 °C 58.4 °F /  14.7 °C 30.12 in /  1019.9 hPa West 1.8 mph /  2.9 km/h 4.6 mph /  7.4 km/h 78 % 0.00 in /  0 mm
06:49 65.5 °F /  18.6 °C 58.5 °F /  14.7 °C 30.11 in /  1019.5 hPa SSW 0.2 mph /  0.3 km/h 1.2 mph /  1.9 km/h 78 % 0.00 in /  0 mm
06:54 65.6 °F /  18.7 °C 58.9 °F /  14.9 °C 30.11 in /  1019.5 hPa SSW 0.2 mph /  0.3 km/h 1.2 mph /  1.9 km/h 79 % 0.00 in /  0 mm
06:59 65.7 °F /  18.7 °C 59.0 °F /  15 °C 30.11 in /  1019.5 hPa South 0.9 mph /  1.4 km/h 3.5 mph /  5.6 km/h 79 % 0.00 in /  0 mm
07:04 65.9 °F /  18.8 °C 58.8 °F /  14.9 °C 30.11 in /  1019.5 hPa Calm     78 % 0.00 in /  0 mm
07:09 66.1 °F /  18.9 °C 59.0 °F /  15 °C 30.11 in /  1019.5 hPa SW 0.2 mph /  0.3 km/h 3.0 mph /  4.8 km/h 78 % 0.00 in /  0 mm
07:14 66.3 °F /  19.1 °C 59.2 °F /  15.1 °C 30.12 in /  1019.9 hPa SW 3.0 mph /  4.8 km/h 8.1 mph /  13 km/h 78 % 0.00 in /  0 mm
07:19 66.6 °F /  19.2 °C 59.5 °F /  15.3 °C 30.12 in /  1019.9 hPa WSW 1.6 mph /  2.6 km/h 3.5 mph /  5.6 km/h 78 % 0.00 in /  0 mm
07:24 66.7 °F /  19.3 °C 59.6 °F /  15.3 °C 30.12 in /  1019.9 hPa Calm     78 % 0.00 in /  0 mm
07:29 67.0 °F /  19.4 °C 60.3 °F /  15.7 °C 30.12 in /  1019.9 hPa WSW 1.5 mph /  2.4 km/h 2.3 mph /  3.7 km/h 79 % 0.00 in /  0 mm
07:34 67.1 °F /  19.5 °C 60.0 °F /  15.6 °C 30.12 in /  1019.9 hPa WSW 0.1 mph /  0.2 km/h 2.3 mph /  3.7 km/h 78 % 0.00 in /  0 mm
07:39 67.3 °F /  19.6 °C 60.2 °F /  15.7 °C 30.13 in /  1020.2 hPa SW 0.2 mph /  0.3 km/h 1.2 mph /  1.9 km/h 78 % 0.00 in /  0 mm
07:44 67.5 °F /  19.7 °C 60.4 °F /  15.8 °C 30.12 in /  1019.9 hPa SW 0.3 mph /  0.5 km/h 1.2 mph /  1.9 km/h 78 % 0.00 in /  0 mm
07:49 67.8 °F /  19.9 °C 60.7 °F /  15.9 °C 30.13 in /  1020.2 hPa Calm   1.2 mph /  1.9 km/h 78 % 0.00 in /  0 mm
07:54 68.1 °F /  20.1 °C 61.3 °F /  16.3 °C 30.12 in /  1019.9 hPa Calm   1.2 mph /  1.9 km/h 79 % 0.00 in /  0 mm
07:59 68.2 °F /  20.1 °C 61.1 °F /  16.2 °C 30.12 in /  1019.9 hPa SW 0.2 mph /  0.3 km/h 1.2 mph /  1.9 km/h 78 % 0.00 in /  0 mm
08:04 68.4 °F /  20.2 °C 61.3 °F /  16.3 °C 30.12 in /  1019.9 hPa SW 0.4 mph /  0.6 km/h 2.0 mph /  3.2 km/h 78 % 0.00 in /  0 mm
08:09 68.6 °F /  20.3 °C 61.5 °F /  16.4 °C 30.12 in /  1019.9 hPa SW 0.1 mph /  0.2 km/h 1.2 mph /  1.9 km/h 78 % 0.00 in /  0 mm
08:14 68.8 °F /  20.4 °C 61.3 °F /  16.3 °C 30.12 in /  1019.9 hPa SW 0.2 mph /  0.3 km/h 1.2 mph /  1.9 km/h 77 % 0.00 in /  0 mm
08:20 69.0 °F /  20.6 °C 61.5 °F /  16.4 °C 30.12 in /  1019.9 hPa West 2.2 mph /  3.5 km/h 5.8 mph /  9.3 km/h 77 % 0.00 in /  0 mm
08:25 69.3 °F /  20.7 °C 61.8 °F /  16.6 °C 30.12 in /  1019.9 hPa Calm   1.2 mph /  1.9 km/h 77 % 0.00 in /  0 mm
08:30 69.6 °F /  20.9 °C 62.1 °F /  16.7 °C 30.11 in /  1019.5 hPa SSE 0.2 mph /  0.3 km/h 2.3 mph /  3.7 km/h 77 % 0.00 in /  0 mm
08:35 69.9 °F /  21.1 °C 62.4 °F /  16.9 °C 30.11 in /  1019.5 hPa SW 1.1 mph /  1.8 km/h 4.6 mph /  7.4 km/h 77 % 0.00 in /  0 mm
08:40 70.2 °F /  21.2 °C 62.3 °F /  16.8 °C 30.11 in /  1019.5 hPa WSW 1.4 mph /  2.3 km/h 2.0 mph /  3.2 km/h 76 % 0.00 in /  0 mm
08:45 70.4 °F /  21.3 °C 62.8 °F /  17.1 °C 30.11 in /  1019.5 hPa SW 0.2 mph /  0.3 km/h 1.2 mph /  1.9 km/h 77 % 0.00 in /  0 mm
08:50 70.6 °F /  21.4 °C 62.7 °F /  17.1 °C 30.11 in /  1019.5 hPa South 0.7 mph /  1.1 km/h 2.3 mph /  3.7 km/h 76 % 0.00 in /  0 mm
08:55 70.8 °F /  21.6 °C 62.9 °F /  17.2 °C 30.11 in /  1019.5 hPa SW 0.8 mph /  1.3 km/h 3.5 mph /  5.6 km/h 76 % 0.00 in /  0 mm
09:00 71.0 °F /  21.7 °C 63.1 °F /  17.3 °C 30.10 in /  1019.2 hPa South 0.9 mph /  1.4 km/h 3.5 mph /  5.6 km/h 76 % 0.00 in /  0 mm
09:05 71.2 °F /  21.8 °C 62.9 °F /  17.2 °C 30.10 in /  1019.2 hPa SW 1.8 mph /  2.9 km/h 4.6 mph /  7.4 km/h 75 % 0.00 in /  0 mm
09:10 71.5 °F /  21.9 °C 62.8 °F /  17.1 °C 30.10 in /  1019.2 hPa SE 1.8 mph /  2.9 km/h 9.2 mph /  14.8 km/h 74 % 0.00 in /  0 mm
09:15 71.9 °F /  22.2 °C 63.2 °F /  17.3 °C 30.10 in /  1019.2 hPa SSW 0.7 mph /  1.1 km/h 4.6 mph /  7.4 km/h 74 % 0.00 in /  0 mm
09:20 72.3 °F /  22.4 °C 63.2 °F /  17.3 °C 30.10 in /  1019.2 hPa SSE 1.9 mph /  3.1 km/h 3.5 mph /  5.6 km/h 73 % 0.00 in /  0 mm
09:25 72.7 °F /  22.6 °C 62.8 °F /  17.1 °C 30.09 in /  1018.8 hPa NE 0.4 mph /  0.6 km/h 2.3 mph /  3.7 km/h 71 % 0.00 in /  0 mm
09:30 73.1 °F /  22.8 °C 63.1 °F /  17.3 °C 30.09 in /  1018.8 hPa WSW 2.5 mph /  4 km/h 4.6 mph /  7.4 km/h 71 % 0.00 in /  0 mm
09:35 73.5 °F /  23.1 °C 63.1 °F /  17.3 °C 30.09 in /  1018.8 hPa SSW 3.3 mph /  5.3 km/h 5.0 mph /  8 km/h 70 % 0.00 in /  0 mm
09:40 74.0 °F /  23.3 °C 63.6 °F /  17.6 °C 30.09 in /  1018.8 hPa South 1.4 mph /  2.3 km/h 6.0 mph /  9.7 km/h 70 % 0.00 in /  0 mm
09:45 74.4 °F /  23.6 °C 63.6 °F /  17.6 °C 30.09 in /  1018.8 hPa West 1.5 mph /  2.4 km/h 3.5 mph /  5.6 km/h 69 % 0.00 in /  0 mm
09:50 74.8 °F /  23.8 °C 63.5 °F /  17.5 °C 30.09 in /  1018.8 hPa Calm   2.3 mph /  3.7 km/h 68 % 0.00 in /  0 mm
09:55 75.2 °F /  24 °C 63.9 °F /  17.7 °C 30.09 in /  1018.8 hPa SSW 1.2 mph /  1.9 km/h 5.8 mph /  9.3 km/h 68 % 0.00 in /  0 mm
10:00 75.5 °F /  24.2 °C 63.8 °F /  17.7 °C 30.09 in /  1018.8 hPa SW 3.1 mph /  5 km/h 5.8 mph /  9.3 km/h 67 % 0.00 in /  0 mm
10:05 75.9 °F /  24.4 °C 64.6 °F /  18.1 °C 30.08 in /  1018.5 hPa SW 0.2 mph /  0.3 km/h 2.3 mph /  3.7 km/h 68 % 0.00 in /  0 mm
10:10 76.2 °F /  24.6 °C 63.1 °F /  17.3 °C 30.08 in /  1018.5 hPa SSW 2.5 mph /  4 km/h 5.0 mph /  8 km/h 64 % 0.00 in /  0 mm
10:16 76.6 °F /  24.8 °C 65.2 °F /  18.4 °C 30.09 in /  1018.8 hPa SSW 1.0 mph /  1.6 km/h 6.0 mph /  9.7 km/h 68 % 0.00 in /  0 mm
10:21 76.9 °F /  24.9 °C 64.2 °F /  17.9 °C 30.09 in /  1018.8 hPa SSW 2.0 mph /  3.2 km/h 10.0 mph /  16.1 km/h 65 % 0.00 in /  0 mm
10:26 77.2 °F /  25.1 °C 63.2 °F /  17.3 °C 30.09 in /  1018.8 hPa South 2.0 mph /  3.2 km/h 10.0 mph /  16.1 km/h 62 % 0.00 in /  0 mm
10:30 77.5 °F /  25.3 °C 65.3 °F /  18.5 °C 30.09 in /  1018.8 hPa South 1.0 mph /  1.6 km/h 6.0 mph /  9.7 km/h 66 % 0.00 in /  0 mm
10:35 77.8 °F /  25.4 °C 64.2 °F /  17.9 °C 30.09 in /  1018.8 hPa South 1.0 mph /  1.6 km/h 6.0 mph /  9.7 km/h 63 % 0.00 in /  0 mm
10:41 78.0 °F /  25.6 °C 63.9 °F /  17.7 °C 30.09 in /  1018.8 hPa SSW 3.0 mph /  4.8 km/h 7.0 mph /  11.3 km/h 62 % 0.00 in /  0 mm
10:46 78.1 °F /  25.6 °C 64.5 °F /  18.1 °C 30.09 in /  1018.8 hPa SSW 3.0 mph /  4.8 km/h 8.0 mph /  12.9 km/h 63 % 0.00 in /  0 mm
10:51 78.2 °F /  25.7 °C 64.1 °F /  17.8 °C 30.09 in /  1018.8 hPa SSW 1.0 mph /  1.6 km/h 5.0 mph /  8 km/h 62 % 0.00 in /  0 mm
10:56 78.2 °F /  25.7 °C 65.0 °F /  18.3 °C 30.09 in /  1018.8 hPa SW 3.0 mph /  4.8 km/h 8.0 mph /  12.9 km/h 64 % 0.00 in /  0 mm
11:01 78.4 °F /  25.8 °C 65.2 °F /  18.4 °C 30.09 in /  1018.8 hPa South 3.2 mph /  5.1 km/h 5.8 mph /  9.3 km/h 64 % 0.00 in /  0 mm
11:06 78.7 °F /  25.9 °C 65.5 °F /  18.6 °C 30.09 in /  1018.8 hPa SW 1.4 mph /  2.3 km/h 3.5 mph /  5.6 km/h 64 % 0.00 in /  0 mm
11:11 79.0 °F /  26.1 °C 65.8 °F /  18.8 °C 30.08 in /  1018.5 hPa SSW 2.8 mph /  4.5 km/h 9.2 mph /  14.8 km/h 64 % 0.00 in /  0 mm
11:16 79.7 °F /  26.5 °C 66.0 °F /  18.9 °C 30.08 in /  1018.5 hPa ESE 1.6 mph /  2.6 km/h 3.5 mph /  5.6 km/h 63 % 0.00 in /  0 mm
11:21 80.1 °F /  26.7 °C 65.4 °F /  18.6 °C 30.08 in /  1018.5 hPa SSW 1.7 mph /  2.7 km/h 3.5 mph /  5.6 km/h 61 % 0.00 in /  0 mm
11:26 80.5 °F /  26.9 °C 65.8 °F /  18.8 °C 30.08 in /  1018.5 hPa SW 1.4 mph /  2.3 km/h 3.5 mph /  5.6 km/h 61 % 0.00 in /  0 mm
11:31 80.9 °F /  27.2 °C 65.7 °F /  18.7 °C 30.08 in /  1018.5 hPa SSE 1.5 mph /  2.4 km/h 3.5 mph /  5.6 km/h 60 % 0.00 in /  0 mm
11:36 81.2 °F /  27.3 °C 67.4 °F /  19.7 °C 30.08 in /  1018.5 hPa SE 3.1 mph /  5 km/h 6.9 mph /  11.1 km/h 63 % 0.00 in /  0 mm
11:41 81.6 °F /  27.6 °C 65.9 °F /  18.8 °C 30.08 in /  1018.5 hPa SSW 5.0 mph /  8 km/h 10.4 mph /  16.7 km/h 59 % 0.00 in /  0 mm
11:46 82.0 °F /  27.8 °C 65.8 °F /  18.8 °C 30.08 in /  1018.5 hPa SSW 3.7 mph /  6 km/h 6.9 mph /  11.1 km/h 58 % 0.00 in /  0 mm
11:51 82.4 °F /  28 °C 65.6 °F /  18.7 °C 30.08 in /  1018.5 hPa South 2.6 mph /  4.2 km/h 5.8 mph /  9.3 km/h 57 % 0.00 in /  0 mm
11:56 82.6 °F /  28.1 °C 66.8 °F /  19.3 °C 30.07 in /  1018.2 hPa WSW 2.7 mph /  4.3 km/h 4.6 mph /  7.4 km/h 59 % 0.00 in /  0 mm
12:01 82.5 °F /  28.1 °C 64.7 °F /  18.2 °C 30.07 in /  1018.2 hPa SSE 2.5 mph /  4 km/h 4.6 mph /  7.4 km/h 55 % 0.00 in /  0 mm
12:06 82.2 °F /  27.9 °C 66.0 °F /  18.9 °C 30.07 in /  1018.2 hPa SSW 2.3 mph /  3.7 km/h 3.5 mph /  5.6 km/h 58 % 0.00 in /  0 mm
12:11 82.0 °F /  27.8 °C 65.3 °F /  18.5 °C 30.07 in /  1018.2 hPa SSW 1.3 mph /  2.1 km/h 3.5 mph /  5.6 km/h 57 % 0.00 in /  0 mm
12:16 82.0 °F /  27.8 °C 65.3 °F /  18.5 °C 30.07 in /  1018.2 hPa SSE 1.9 mph /  3.1 km/h 4.6 mph /  7.4 km/h 57 % 0.00 in /  0 mm
12:21 81.7 °F /  27.6 °C 65.0 °F /  18.3 °C 30.07 in /  1018.2 hPa SSW 2.4 mph /  3.9 km/h 8.1 mph /  13 km/h 57 % 0.00 in /  0 mm
12:26 81.3 °F /  27.4 °C 64.1 °F /  17.8 °C 30.07 in /  1018.2 hPa WSW 2.6 mph /  4.2 km/h 3.5 mph /  5.6 km/h 56 % 0.00 in /  0 mm
12:31 81.4 °F /  27.4 °C 65.2 °F /  18.4 °C 30.07 in /  1018.2 hPa SSW 1.6 mph /  2.6 km/h 3.5 mph /  5.6 km/h 58 % 0.00 in /  0 mm
12:36 81.7 °F /  27.6 °C 65.5 °F /  18.6 °C 30.06 in /  1017.8 hPa SSW 5.4 mph /  8.7 km/h 8.1 mph /  13 km/h 58 % 0.00 in /  0 mm
12:41 81.8 °F /  27.7 °C 65.1 °F /  18.4 °C 30.06 in /  1017.8 hPa SSE 2.5 mph /  4 km/h 4.6 mph /  7.4 km/h 57 % 0.00 in /  0 mm
12:46 81.6 °F /  27.6 °C 63.9 °F /  17.7 °C 30.06 in /  1017.8 hPa SE 1.7 mph /  2.7 km/h 10.0 mph /  16.1 km/h 55 % 0.00 in /  0 mm
12:51 81.4 °F /  27.4 °C 65.2 °F /  18.4 °C 30.06 in /  1017.8 hPa SSE 2.6 mph /  4.2 km/h 3.5 mph /  5.6 km/h 58 % 0.00 in /  0 mm
12:56 81.5 °F /  27.5 °C 67.2 °F /  19.6 °C 30.06 in /  1017.8 hPa SSW 1.1 mph /  1.8 km/h 3.5 mph /  5.6 km/h 62 % 0.00 in /  0 mm
13:01 81.9 °F /  27.7 °C 65.2 °F /  18.4 °C 30.06 in /  1017.8 hPa South 2.1 mph /  3.4 km/h 6.9 mph /  11.1 km/h 57 % 0.00 in /  0 mm
13:06 82.0 °F /  27.8 °C 66.3 °F /  19.1 °C 30.06 in /  1017.8 hPa SW 5.3 mph /  8.5 km/h 11.5 mph /  18.5 km/h 59 % 0.00 in /  0 mm
13:10 82.2 °F /  27.9 °C 66.9 °F /  19.4 °C 30.06 in /  1017.8 hPa South 1.6 mph /  2.6 km/h 5.8 mph /  9.3 km/h 60 % 0.00 in /  0 mm
13:15 82.3 °F /  27.9 °C 66.0 °F /  18.9 °C 30.06 in /  1017.8 hPa SE 1.2 mph /  1.9 km/h 3.5 mph /  5.6 km/h 58 % 0.00 in /  0 mm
13:20 82.5 °F /  28.1 °C 67.2 °F /  19.6 °C 30.06 in /  1017.8 hPa South 2.7 mph /  4.3 km/h 8.0 mph /  12.9 km/h 60 % 0.00 in /  0 mm
13:25 82.2 °F /  27.9 °C 64.4 °F /  18 °C 30.05 in /  1017.5 hPa South 3.3 mph /  5.3 km/h 8.1 mph /  13 km/h 55 % 0.00 in /  0 mm
13:30 81.6 °F /  27.6 °C 64.9 °F /  18.3 °C 30.05 in /  1017.5 hPa WNW 2.3 mph /  3.7 km/h 5.8 mph /  9.3 km/h 57 % 0.00 in /  0 mm
13:35 81.5 °F /  27.5 °C 66.3 °F /  19.1 °C 30.05 in /  1017.5 hPa SSW 3.9 mph /  6.3 km/h 5.0 mph /  8 km/h 60 % 0.00 in /  0 mm
13:40 81.4 °F /  27.4 °C 66.2 °F /  19 °C 30.05 in /  1017.5 hPa South 3.1 mph /  5 km/h 9.0 mph /  14.5 km/h 60 % 0.00 in /  0 mm
13:45 81.4 °F /  27.4 °C 65.2 °F /  18.4 °C 30.05 in /  1017.5 hPa South 2.4 mph /  3.9 km/h 6.0 mph /  9.7 km/h 58 % 0.00 in /  0 mm
13:50 81.5 °F /  27.5 °C 65.3 °F /  18.5 °C 30.05 in /  1017.5 hPa South 4.0 mph /  6.4 km/h 13.8 mph /  22.2 km/h 58 % 0.00 in /  0 mm
13:55 81.7 °F /  27.6 °C 66.5 °F /  19.2 °C 30.05 in /  1017.5 hPa SSW 3.9 mph /  6.3 km/h 5.8 mph /  9.3 km/h 60 % 0.00 in /  0 mm
14:00 81.7 °F /  27.6 °C 66.9 °F /  19.4 °C 30.04 in /  1017.2 hPa SW 2.0 mph /  3.2 km/h 3.5 mph /  5.6 km/h 61 % 0.00 in /  0 mm
14:05 81.9 °F /  27.7 °C 66.2 °F /  19 °C 30.04 in /  1017.2 hPa SSE 3.0 mph /  4.8 km/h 4.6 mph /  7.4 km/h 59 % 0.00 in /  0 mm
14:10 81.9 °F /  27.7 °C 66.6 °F /  19.2 °C 30.05 in /  1017.5 hPa SW 4.0 mph /  6.4 km/h 8.1 mph /  13 km/h 60 % 0.00 in /  0 mm
14:15 82.0 °F /  27.8 °C 66.7 °F /  19.3 °C 30.04 in /  1017.2 hPa SSW 4.7 mph /  7.6 km/h 7.0 mph /  11.3 km/h 60 % 0.00 in /  0 mm
14:20 82.2 °F /  27.9 °C 66.9 °F /  19.4 °C 30.04 in /  1017.2 hPa SW 5.5 mph /  8.9 km/h 11.5 mph /  18.5 km/h 60 % 0.00 in /  0 mm
14:25 82.3 °F /  27.9 °C 66.5 °F /  19.2 °C 30.04 in /  1017.2 hPa SSW 2.7 mph /  4.3 km/h 6.9 mph /  11.1 km/h 59 % 0.00 in /  0 mm
14:30 82.4 °F /  28 °C 67.1 °F /  19.5 °C 30.04 in /  1017.2 hPa South 1.2 mph /  1.9 km/h 4.0 mph /  6.4 km/h 60 % 0.00 in /  0 mm
14:35 82.4 °F /  28 °C 65.6 °F /  18.7 °C 30.04 in /  1017.2 hPa SSW 7.5 mph /  12.1 km/h 12.7 mph /  20.4 km/h 57 % 0.00 in /  0 mm
14:40 82.3 °F /  27.9 °C 66.5 °F /  19.2 °C 30.05 in /  1017.5 hPa SW 4.4 mph /  7.1 km/h 8.1 mph /  13 km/h 59 % 0.00 in /  0 mm
14:45 82.3 °F /  27.9 °C 67.0 °F /  19.4 °C 30.05 in /  1017.5 hPa South 1.5 mph /  2.4 km/h 4.0 mph /  6.4 km/h 60 % 0.00 in /  0 mm
14:50 82.2 °F /  27.9 °C 66.9 °F /  19.4 °C 30.05 in /  1017.5 hPa SE 0.7 mph /  1.1 km/h   60 % 0.00 in /  0 mm
14:55 82.0 °F /  27.8 °C 65.8 °F /  18.8 °C 30.04 in /  1017.2 hPa SSW 2.2 mph /  3.5 km/h 5.0 mph /  8 km/h 58 % 0.00 in /  0 mm
15:00 81.5 °F /  27.5 °C 66.3 °F /  19.1 °C 30.04 in /  1017.2 hPa WSW 4.0 mph /  6.4 km/h 8.1 mph /  13 km/h 60 % 0.00 in /  0 mm
15:05 81.3 °F /  27.4 °C 66.6 °F /  19.2 °C 30.04 in /  1017.2 hPa South 4.0 mph /  6.4 km/h 8.1 mph /  13 km/h 61 % 0.00 in /  0 mm
15:10 81.0 °F /  27.2 °C 65.8 °F /  18.8 °C 30.03 in /  1016.8 hPa SW 2.8 mph /  4.5 km/h 8.1 mph /  13 km/h 60 % 0.00 in /  0 mm
15:16 80.9 °F /  27.2 °C 66.2 °F /  19 °C 30.04 in /  1017.2 hPa South 6.0 mph /  9.7 km/h 14.0 mph /  22.5 km/h 61 % 0.00 in /  0 mm
15:21 80.7 °F /  27.1 °C 66.5 °F /  19.2 °C 30.04 in /  1017.2 hPa SSW 3.0 mph /  4.8 km/h 7.0 mph /  11.3 km/h 62 % 0.00 in /  0 mm
15:26 80.7 °F /  27.1 °C 66.5 °F /  19.2 °C 30.03 in /  1016.8 hPa SSW 5.0 mph /  8 km/h 10.0 mph /  16.1 km/h 62 % 0.00 in /  0 mm
15:31 80.7 °F /  27.1 °C 66.0 °F /  18.9 °C 30.03 in /  1016.8 hPa South 3.0 mph /  4.8 km/h 7.0 mph /  11.3 km/h 61 % 0.00 in /  0 mm
15:37 80.5 °F /  26.9 °C 65.8 °F /  18.8 °C 30.03 in /  1016.8 hPa SSW 4.5 mph /  7.2 km/h 6.0 mph /  9.7 km/h 61 % 0.00 in /  0 mm
15:42 80.4 °F /  26.9 °C 66.2 °F /  19 °C 30.03 in /  1016.8 hPa SSW 2.2 mph /  3.5 km/h 3.5 mph /  5.6 km/h 62 % 0.00 in /  0 mm
15:47 80.5 °F /  26.9 °C 67.2 °F /  19.6 °C 30.03 in /  1016.8 hPa SW 5.4 mph /  8.7 km/h 5.4 mph /  8.7 km/h 64 % 0.00 in /  0 mm
15:52 80.6 °F /  27 °C 66.8 °F /  19.3 °C 30.03 in /  1016.8 hPa SSW 3.6 mph /  5.8 km/h 4.0 mph /  6.4 km/h 63 % 0.00 in /  0 mm
15:57 80.5 °F /  26.9 °C 66.7 °F /  19.3 °C 30.02 in /  1016.5 hPa South 5.4 mph /  8.7 km/h 10.4 mph /  16.7 km/h 63 % 0.00 in /  0 mm
16:02 80.3 °F /  26.8 °C 65.6 °F /  18.7 °C 30.02 in /  1016.5 hPa SSW 5.2 mph /  8.4 km/h 11.5 mph /  18.5 km/h 61 % 0.00 in /  0 mm
16:07 80.1 °F /  26.7 °C 66.4 °F /  19.1 °C 30.02 in /  1016.5 hPa South 4.1 mph /  6.6 km/h 11.5 mph /  18.5 km/h 63 % 0.00 in /  0 mm
16:12 79.7 °F /  26.5 °C 66.0 °F /  18.9 °C 30.02 in /  1016.5 hPa SSE 2.7 mph /  4.3 km/h 6.9 mph /  11.1 km/h 63 % 0.00 in /  0 mm
16:17 79.3 °F /  26.3 °C 65.6 °F /  18.7 °C 30.01 in /  1016.1 hPa South 1.9 mph /  3.1 km/h 10.4 mph /  16.7 km/h 63 % 0.00 in /  0 mm
16:22 78.9 °F /  26.1 °C 65.7 °F /  18.7 °C 30.01 in /  1016.1 hPa SSE 2.3 mph /  3.7 km/h 6.9 mph /  11.1 km/h 64 % 0.00 in /  0 mm
16:27 78.6 °F /  25.9 °C 65.8 °F /  18.8 °C 30.01 in /  1016.1 hPa SSW 4.5 mph /  7.2 km/h 10.0 mph /  16.1 km/h 65 % 0.00 in /  0 mm
16:32 78.3 °F /  25.7 °C 66.0 °F /  18.9 °C 30.01 in /  1016.1 hPa SW 1.9 mph /  3.1 km/h 5.8 mph /  9.3 km/h 66 % 0.00 in /  0 mm
16:37 78.0 °F /  25.6 °C 65.7 °F /  18.7 °C 30.01 in /  1016.1 hPa SSE 3.5 mph /  5.6 km/h 14.0 mph /  22.5 km/h 66 % 0.00 in /  0 mm
16:42 77.6 °F /  25.3 °C 65.3 °F /  18.5 °C 30.01 in /  1016.1 hPa SE 1.3 mph /  2.1 km/h 4.6 mph /  7.4 km/h 66 % 0.00 in /  0 mm
16:48 77.4 °F /  25.2 °C 65.6 °F /  18.7 °C 30.01 in /  1016.1 hPa SSW 5.1 mph /  8.2 km/h 13.8 mph /  22.2 km/h 67 % 0.00 in /  0 mm
16:53 77.3 °F /  25.2 °C 65.5 °F /  18.6 °C 30.01 in /  1016.1 hPa SSE 2.6 mph /  4.2 km/h 9.2 mph /  14.8 km/h 67 % 0.00 in /  0 mm
16:58 77.2 °F /  25.1 °C 65.8 °F /  18.8 °C 30.00 in /  1015.8 hPa SSW 3.2 mph /  5.1 km/h 8.1 mph /  13 km/h 68 % 0.00 in /  0 mm
17:03 77.2 °F /  25.1 °C 66.2 °F /  19 °C 30.00 in /  1015.8 hPa SSE 4.3 mph /  6.9 km/h 9.2 mph /  14.8 km/h 69 % 0.00 in /  0 mm
17:06 77.1 °F /  25.1 °C 66.1 °F /  18.9 °C 30.00 in /  1015.8 hPa SW 3.2 mph /  5.1 km/h 9.2 mph /  14.8 km/h 69 % 0.00 in /  0 mm
17:11 76.9 °F /  24.9 °C 66.0 °F /  18.9 °C 30.00 in /  1015.8 hPa SSW 4.6 mph /  7.4 km/h 8.1 mph /  13 km/h 69 % 0.00 in /  0 mm
17:16 76.7 °F /  24.8 °C 65.8 °F /  18.8 °C 30.00 in /  1015.8 hPa SE 3.3 mph /  5.3 km/h 11.0 mph /  17.7 km/h 69 % 0.00 in /  0 mm
17:21 76.5 °F /  24.7 °C 66.0 °F /  18.9 °C 30.00 in /  1015.8 hPa SSW 1.4 mph /  2.3 km/h 4.6 mph /  7.4 km/h 70 % 0.00 in /  0 mm
17:26 76.4 °F /  24.7 °C 65.9 °F /  18.8 °C 30.00 in /  1015.8 hPa SW 2.4 mph /  3.9 km/h 6.9 mph /  11.1 km/h 70 % 0.00 in /  0 mm
17:31 76.2 °F /  24.6 °C 66.1 °F /  18.9 °C 30.00 in /  1015.8 hPa South 2.4 mph /  3.9 km/h 4.6 mph /  7.4 km/h 71 % 0.00 in /  0 mm
17:36 76.0 °F /  24.4 °C 65.5 °F /  18.6 °C 30.00 in /  1015.8 hPa SSW 3.1 mph /  5 km/h 6.9 mph /  11.1 km/h 70 % 0.00 in /  0 mm
17:41 75.8 °F /  24.3 °C 65.7 °F /  18.7 °C 30.00 in /  1015.8 hPa SW 3.5 mph /  5.6 km/h 12.7 mph /  20.4 km/h 71 % 0.00 in /  0 mm
17:46 75.7 °F /  24.3 °C 65.6 °F /  18.7 °C 30.00 in /  1015.8 hPa South 5.5 mph /  8.9 km/h 11.5 mph /  18.5 km/h 71 % 0.00 in /  0 mm
17:51 75.6 °F /  24.2 °C 65.5 °F /  18.6 °C 30.00 in /  1015.8 hPa SSE 1.1 mph /  1.8 km/h 3.5 mph /  5.6 km/h 71 % 0.00 in /  0 mm
17:56 75.5 °F /  24.2 °C 65.8 °F /  18.8 °C 30.01 in /  1016.1 hPa South 3.3 mph /  5.3 km/h 10.4 mph /  16.7 km/h 72 % 0.00 in /  0 mm
18:01 75.3 °F /  24.1 °C 65.2 °F /  18.4 °C 30.00 in /  1015.8 hPa SSW 3.5 mph /  5.6 km/h 7.0 mph /  11.3 km/h 71 % 0.00 in /  0 mm
18:06 75.2 °F /  24 °C 65.6 °F /  18.7 °C 30.00 in /  1015.8 hPa South 2.3 mph /  3.7 km/h 3.5 mph /  5.6 km/h 72 % 0.00 in /  0 mm
18:11 75.1 °F /  23.9 °C 65.5 °F /  18.6 °C 30.01 in /  1016.1 hPa South 2.8 mph /  4.5 km/h 6.0 mph /  9.7 km/h 72 % 0.00 in /  0 mm
18:16 75.0 °F /  23.9 °C 65.8 °F /  18.8 °C 30.01 in /  1016.1 hPa SE 2.3 mph /  3.7 km/h 6.9 mph /  11.1 km/h 73 % 0.00 in /  0 mm
18:21 74.9 °F /  23.8 °C 65.7 °F /  18.7 °C 30.01 in /  1016.1 hPa SSE 2.0 mph /  3.2 km/h 3.5 mph /  5.6 km/h 73 % 0.00 in /  0 mm
18:26 74.8 °F /  23.8 °C 65.6 °F /  18.7 °C 30.01 in /  1016.1 hPa ENE 3.0 mph /  4.8 km/h 10.4 mph /  16.7 km/h 73 % 0.00 in /  0 mm
18:31 74.8 °F /  23.8 °C 65.6 °F /  18.7 °C 30.01 in /  1016.1 hPa SSW 3.8 mph /  6.1 km/h 6.9 mph /  11.1 km/h 73 % 0.00 in /  0 mm
18:36 74.6 °F /  23.7 °C 65.4 °F /  18.6 °C 30.00 in /  1015.8 hPa South 4.0 mph /  6.4 km/h 7.0 mph /  11.3 km/h 73 % 0.00 in /  0 mm
18:41 74.5 °F /  23.6 °C 65.3 °F /  18.5 °C 30.00 in /  1015.8 hPa ESE 3.6 mph /  5.8 km/h 8.0 mph /  12.9 km/h 73 % 0.00 in /  0 mm
18:46 74.3 °F /  23.5 °C 65.1 °F /  18.4 °C 30.00 in /  1015.8 hPa SSE 3.4 mph /  5.5 km/h 6.0 mph /  9.7 km/h 73 % 0.00 in /  0 mm
18:51 74.2 °F /  23.4 °C 65.4 °F /  18.6 °C 30.00 in /  1015.8 hPa South 4.3 mph /  6.9 km/h 6.9 mph /  11.1 km/h 74 % 0.00 in /  0 mm
18:56 74.1 °F /  23.4 °C 65.3 °F /  18.5 °C 29.99 in /  1015.5 hPa SSE 4.9 mph /  7.9 km/h 7.0 mph /  11.3 km/h 74 % 0.00 in /  0 mm
19:01 74.1 °F /  23.4 °C 64.9 °F /  18.3 °C 30.00 in /  1015.8 hPa SSW 4.0 mph /  6.4 km/h 8.1 mph /  13 km/h 73 % 0.00 in /  0 mm
19:06 74.0 °F /  23.3 °C 64.8 °F /  18.2 °C 30.00 in /  1015.8 hPa SSW 4.5 mph /  7.2 km/h 6.9 mph /  11.1 km/h 73 % 0.00 in /  0 mm
19:11 74.0 °F /  23.3 °C 65.2 °F /  18.4 °C 30.00 in /  1015.8 hPa South 3.0 mph /  4.8 km/h 9.0 mph /  14.5 km/h 74 % 0.00 in /  0 mm
19:16 73.9 °F /  23.3 °C 65.1 °F /  18.4 °C 30.00 in /  1015.8 hPa South 5.0 mph /  8 km/h 9.0 mph /  14.5 km/h 74 % 0.00 in /  0 mm
19:21 73.8 °F /  23.2 °C 65.0 °F /  18.3 °C 30.00 in /  1015.8 hPa SSW 5.0 mph /  8 km/h 12.0 mph /  19.3 km/h 74 % 0.00 in /  0 mm
19:26 73.7 °F /  23.2 °C 64.9 °F /  18.3 °C 30.00 in /  1015.8 hPa SSW 2.0 mph /  3.2 km/h 8.0 mph /  12.9 km/h 74 % 0.00 in /  0 mm
19:31 73.6 °F /  23.1 °C 64.8 °F /  18.2 °C 30.00 in /  1015.8 hPa SSW 2.0 mph /  3.2 km/h 9.0 mph /  14.5 km/h 74 % 0.00 in /  0 mm
19:36 73.5 °F /  23.1 °C 64.7 °F /  18.2 °C 30.00 in /  1015.8 hPa SSW 5.0 mph /  8 km/h 13.0 mph /  20.9 km/h 74 % 0.00 in /  0 mm
19:41 73.3 °F /  22.9 °C 64.6 °F /  18.1 °C 30.00 in /  1015.8 hPa SSW 3.0 mph /  4.8 km/h 9.0 mph /  14.5 km/h 74 % 0.00 in /  0 mm
19:46 73.2 °F /  22.9 °C 64.4 °F /  18 °C 29.99 in /  1015.5 hPa South 3.0 mph /  4.8 km/h 9.0 mph /  14.5 km/h 74 % 0.00 in /  0 mm
19:51 73.1 °F /  22.8 °C 64.7 °F /  18.2 °C 30.00 in /  1015.8 hPa South 3.0 mph /  4.8 km/h 7.0 mph /  11.3 km/h 75 % 0.00 in /  0 mm
19:56 73.0 °F /  22.8 °C 64.6 °F /  18.1 °C 30.00 in /  1015.8 hPa SSE 2.5 mph /  4 km/h 6.9 mph /  11.1 km/h 75 % 0.00 in /  0 mm
20:01 72.9 °F /  22.7 °C 64.9 °F /  18.3 °C 30.00 in /  1015.8 hPa SE 4.1 mph /  6.6 km/h 7.0 mph /  11.3 km/h 76 % 0.00 in /  0 mm
20:06 72.8 °F /  22.7 °C 64.8 °F /  18.2 °C 30.00 in /  1015.8 hPa South 2.0 mph /  3.2 km/h 7.0 mph /  11.3 km/h 76 % 0.00 in /  0 mm
20:11 72.6 °F /  22.6 °C 64.6 °F /  18.1 °C 30.00 in /  1015.8 hPa SSW 2.0 mph /  3.2 km/h 8.0 mph /  12.9 km/h 76 % 0.00 in /  0 mm
20:16 72.5 °F /  22.5 °C 64.9 °F /  18.3 °C 29.99 in /  1015.5 hPa SSW 1.5 mph /  2.4 km/h 3.5 mph /  5.6 km/h 77 % 0.00 in /  0 mm
20:21 72.4 °F /  22.4 °C 64.8 °F /  18.2 °C 29.99 in /  1015.5 hPa SE 2.1 mph /  3.4 km/h 5.8 mph /  9.3 km/h 77 % 0.00 in /  0 mm
20:26 72.3 °F /  22.4 °C 64.7 °F /  18.2 °C 29.99 in /  1015.5 hPa South 3.0 mph /  4.8 km/h 10.0 mph /  16.1 km/h 77 % 0.00 in /  0 mm
20:31 72.2 °F /  22.3 °C 64.6 °F /  18.1 °C 29.99 in /  1015.5 hPa South 5.0 mph /  8 km/h 9.0 mph /  14.5 km/h 77 % 0.00 in /  0 mm
20:36 72.2 °F /  22.3 °C 64.2 °F /  17.9 °C 29.99 in /  1015.5 hPa South 2.0 mph /  3.2 km/h 8.0 mph /  12.9 km/h 76 % 0.00 in /  0 mm
20:41 72.1 °F /  22.3 °C 64.1 °F /  17.8 °C 29.98 in /  1015.1 hPa South 2.0 mph /  3.2 km/h 7.0 mph /  11.3 km/h 76 % 0.00 in /  0 mm
20:46 72.2 °F /  22.3 °C 64.2 °F /  17.9 °C 29.98 in /  1015.1 hPa South 3.0 mph /  4.8 km/h 10.0 mph /  16.1 km/h 76 % 0.00 in /  0 mm
20:51 72.1 °F /  22.3 °C 64.1 °F /  17.8 °C 29.98 in /  1015.1 hPa South 3.0 mph /  4.8 km/h 9.0 mph /  14.5 km/h 76 % 0.00 in /  0 mm
20:56 72.2 °F /  22.3 °C 64.2 °F /  17.9 °C 29.99 in /  1015.5 hPa South 3.0 mph /  4.8 km/h 7.0 mph /  11.3 km/h 76 % 0.00 in /  0 mm
21:01 72.1 °F /  22.3 °C 64.1 °F /  17.8 °C 29.98 in /  1015.1 hPa SW 3.6 mph /  5.8 km/h 4.6 mph /  7.4 km/h 76 % 0.00 in /  0 mm
21:06 72.1 °F /  22.3 °C 63.7 °F /  17.6 °C 29.98 in /  1015.1 hPa SSW 3.1 mph /  5 km/h 5.8 mph /  9.3 km/h 75 % 0.00 in /  0 mm
21:11 72.1 °F /  22.3 °C 63.7 °F /  17.6 °C 29.98 in /  1015.1 hPa South 2.0 mph /  3.2 km/h 8.0 mph /  12.9 km/h 75 % 0.00 in /  0 mm
21:16 72.1 °F /  22.3 °C 63.7 °F /  17.6 °C 29.98 in /  1015.1 hPa South 2.0 mph /  3.2 km/h 7.0 mph /  11.3 km/h 75 % 0.00 in /  0 mm
21:21 72.0 °F /  22.2 °C 63.7 °F /  17.6 °C 29.98 in /  1015.1 hPa South 2.0 mph /  3.2 km/h 7.0 mph /  11.3 km/h 75 % 0.00 in /  0 mm
21:26 72.0 °F /  22.2 °C 63.6 °F /  17.6 °C 29.99 in /  1015.5 hPa SSW 2.0 mph /  3.2 km/h 6.0 mph /  9.7 km/h 75 % 0.00 in /  0 mm
21:31 71.9 °F /  22.2 °C 63.6 °F /  17.6 °C 29.99 in /  1015.5 hPa SSW 1.0 mph /  1.6 km/h 6.0 mph /  9.7 km/h 75 % 0.00 in /  0 mm
21:36 71.9 °F /  22.2 °C 63.5 °F /  17.5 °C 29.99 in /  1015.5 hPa South 0.3 mph /  0.5 km/h 3.5 mph /  5.6 km/h 75 % 0.00 in /  0 mm
21:41 71.9 °F /  22.2 °C 63.5 °F /  17.5 °C 29.99 in /  1015.5 hPa SE 1.9 mph /  3.1 km/h 4.6 mph /  7.4 km/h 75 % 0.00 in /  0 mm
21:46 71.8 °F /  22.1 °C 63.4 °F /  17.4 °C 29.99 in /  1015.5 hPa South 1.6 mph /  2.6 km/h 3.5 mph /  5.6 km/h 75 % 0.00 in /  0 mm
21:51 71.7 °F /  22.1 °C 63.4 °F /  17.4 °C 29.99 in /  1015.5 hPa SSW 1.3 mph /  2.1 km/h 3.5 mph /  5.6 km/h 75 % 0.00 in /  0 mm
21:56 71.7 °F /  22.1 °C 63.0 °F /  17.2 °C 29.99 in /  1015.5 hPa South 2.0 mph /  3.2 km/h 7.0 mph /  11.3 km/h 74 % 0.00 in /  0 mm
22:01 71.7 °F /  22.1 °C 63.0 °F /  17.2 °C 29.99 in /  1015.5 hPa SSE 1.4 mph /  2.3 km/h 3.5 mph /  5.6 km/h 74 % 0.00 in /  0 mm
22:06 71.7 °F /  22.1 °C 63.0 °F /  17.2 °C 29.99 in /  1015.5 hPa SSW 1.0 mph /  1.6 km/h 5.0 mph /  8 km/h 74 % 0.00 in /  0 mm
22:11 71.7 °F /  22.1 °C 63.0 °F /  17.2 °C 29.99 in /  1015.5 hPa SSW 1.0 mph /  1.6 km/h 8.0 mph /  12.9 km/h 74 % 0.00 in /  0 mm
22:16 71.7 °F /  22.1 °C 63.0 °F /  17.2 °C 29.99 in /  1015.5 hPa SSW 2.0 mph /  3.2 km/h 8.0 mph /  12.9 km/h 74 % 0.00 in /  0 mm
22:21 71.6 °F /  22 °C 62.9 °F /  17.2 °C 29.99 in /  1015.5 hPa SSW 2.0 mph /  3.2 km/h 6.0 mph /  9.7 km/h 74 % 0.00 in /  0 mm
22:26 71.6 °F /  22 °C 62.9 °F /  17.2 °C 29.99 in /  1015.5 hPa South 2.0 mph /  3.2 km/h 8.0 mph /  12.9 km/h 74 % 0.00 in /  0 mm
22:31 71.6 °F /  22 °C 62.9 °F /  17.2 °C 29.99 in /  1015.5 hPa South 2.0 mph /  3.2 km/h 6.0 mph /  9.7 km/h 74 % 0.00 in /  0 mm
22:36 71.6 °F /  22 °C 62.9 °F /  17.2 °C 29.99 in /  1015.5 hPa SSE 2.0 mph /  3.2 km/h 7.0 mph /  11.3 km/h 74 % 0.00 in /  0 mm
22:41 71.6 °F /  22 °C 62.8 °F /  17.1 °C 29.99 in /  1015.5 hPa South 2.0 mph /  3.2 km/h 5.0 mph /  8 km/h 74 % 0.00 in /  0 mm
22:46 71.5 °F /  21.9 °C 63.2 °F /  17.3 °C 29.99 in /  1015.5 hPa SSW 1.0 mph /  1.6 km/h 6.0 mph /  9.7 km/h 75 % 0.00 in /  0 mm
22:51 71.5 °F /  21.9 °C 62.8 °F /  17.1 °C 30.00 in /  1015.8 hPa SW 2.5 mph /  4 km/h 3.0 mph /  4.8 km/h 74 % 0.00 in /  0 mm
22:56 71.5 °F /  21.9 °C 62.8 °F /  17.1 °C 30.00 in /  1015.8 hPa SSW 1.5 mph /  2.4 km/h 3.0 mph /  4.8 km/h 74 % 0.00 in /  0 mm
23:01 71.4 °F /  21.9 °C 62.7 °F /  17.1 °C 30.00 in /  1015.8 hPa SSW 1.0 mph /  1.6 km/h 5.8 mph /  9.3 km/h 74 % 0.00 in /  0 mm
23:06 71.4 °F /  21.9 °C 62.7 °F /  17.1 °C 29.99 in /  1015.5 hPa SSW 2.1 mph /  3.4 km/h 3.5 mph /  5.6 km/h 74 % 0.00 in /  0 mm
23:11 71.4 °F /  21.9 °C 62.7 °F /  17.1 °C 29.99 in /  1015.5 hPa SSW 0.5 mph /  0.8 km/h 5.8 mph /  9.3 km/h 74 % 0.00 in /  0 mm
23:16 71.4 °F /  21.9 °C 62.7 °F /  17.1 °C 29.99 in /  1015.5 hPa SSE 2.1 mph /  3.4 km/h 3.5 mph /  5.6 km/h 74 % 0.00 in /  0 mm
23:21 71.4 °F /  21.9 °C 62.7 °F /  17.1 °C 29.99 in /  1015.5 hPa South 2.3 mph /  3.7 km/h 4.6 mph /  7.4 km/h 74 % 0.00 in /  0 mm
23:26 71.4 °F /  21.9 °C 62.3 °F /  16.8 °C 29.99 in /  1015.5 hPa SE 1.1 mph /  1.8 km/h 3.5 mph /  5.6 km/h 73 % 0.00 in /  0 mm
23:31 71.5 °F /  21.9 °C 62.4 °F /  16.9 °C 29.99 in /  1015.5 hPa SSW 3.1 mph /  5 km/h 9.2 mph /  14.8 km/h 73 % 0.00 in /  0 mm
23:36 71.5 °F /  21.9 °C 62.4 °F /  16.9 °C 29.99 in /  1015.5 hPa South 1.9 mph /  3.1 km/h 4.6 mph /  7.4 km/h 73 % 0.00 in /  0 mm
23:41 71.5 °F /  21.9 °C 62.4 °F /  16.9 °C 29.99 in /  1015.5 hPa SSW 2.5 mph /  4 km/h 5.8 mph /  9.3 km/h 73 % 0.00 in /  0 mm
23:46 71.5 °F /  21.9 °C 62.0 °F /  16.7 °C 29.99 in /  1015.5 hPa South 0.6 mph /  1 km/h 3.5 mph /  5.6 km/h 72 % 0.00 in /  0 mm
23:51 71.5 °F /  21.9 °C 62.0 °F /  16.7 °C 29.98 in /  1015.1 hPa South 1.4 mph /  2.3 km/h 3.5 mph /  5.6 km/h 72 % 0.00 in /  0 mm
23:56 71.5 °F /  21.9 °C 62.0 °F /  16.7 °C 29.99 in /  1015.5 hPa SSW 2.7 mph /  4.3 km/h 6.9 mph /  11.1 km/h 72 % 0.00 in /  0 mm
Crab Meadow Weather
Compliments of Weather Underground - 3 mb

Script developed by  Jim McMurry - jmcmurry@mwt.net Adapted for the template by  Wim van der Kuil - Leuven-Template.eu

Astronomy: Venus rotates east to west.